Time;durP1;ratioP1;P1;durP2;ratioP2;P2;SDS_P1;SDS_P2;PMS_P1;PMS_P2;Temp;Humidity;BMP_temperature;BMP_pressure;BME280_temperature;BME280_humidity;BME280_pressure;Samples;Min_cycle;Max_cycle;Signal;HPM_P1;HPM_P2
2021/04/28 00:01:45;;;;;;;10.13;6.57;;;9.10;17.00;;;;;;5036990;28;20371;-81
2021/04/28 00:04:11;;;;;;;12.57;6.40;;;9.10;16.90;;;;;;5036267;28;20387;-81
2021/04/28 00:06:37;;;;;;;10.10;6.90;;;8.70;17.20;;;;;;5035244;28;20393;-81
2021/04/28 00:09:05;;;;;;;10.10;6.70;;;8.60;17.80;;;;;;5042377;28;20412;-80
2021/04/28 00:11:32;;;;;;;10.07;6.63;;;8.80;18.70;;;;;;5038467;28;20407;-82
2021/04/28 00:13:58;;;;;;;11.18;7.22;;;8.70;18.80;;;;;;5032878;28;20387;-82
2021/04/28 00:16:24;;;;;;;10.07;6.93;;;8.60;19.30;;;;;;5028790;28;20460;-81
2021/04/28 00:18:50;;;;;;;11.67;6.87;;;8.50;19.70;;;;;;5033033;28;20388;-80
2021/04/28 00:21:17;;;;;;;9.68;6.70;;;8.60;19.50;;;;;;5036848;28;20396;-80
2021/04/28 00:23:44;;;;;;;14.30;6.93;;;8.60;19.50;;;;;;5036367;28;20404;-82
2021/04/28 00:26:15;;;;;;;10.40;6.88;;;8.60;19.10;;;;;;5036298;28;20443;-82
2021/04/28 00:28:41;;;;;;;9.18;6.50;;;8.30;19.70;;;;;;5036380;28;20400;-80
2021/04/28 00:31:07;;;;;;;12.05;6.85;;;8.10;21.50;;;;;;5019529;28;20482;-81
2021/04/28 00:33:32;;;;;;;10.57;6.38;;;8.20;21.90;;;;;;5037025;28;20404;-80
2021/04/28 00:35:58;;;;;;;13.65;7.38;;;8.50;20.20;;;;;;5019668;28;20392;-80
2021/04/28 00:38:24;;;;;;;12.18;6.90;;;8.60;20.00;;;;;;5026280;28;20387;-79
2021/04/28 00:40:50;;;;;;;11.13;6.60;;;8.40;19.90;;;;;;5034249;28;20391;-80
2021/04/28 00:43:17;;;;;;;10.68;6.90;;;8.30;21.20;;;;;;5049125;28;20521;-81
2021/04/28 00:45:43;;;;;;;14.27;6.80;;;8.10;21.40;;;;;;5051457;28;20384;-82
2021/04/28 00:48:11;;;;;;;12.70;7.15;;;8.10;21.30;;;;;;5054030;28;20403;-81
2021/04/28 00:50:42;;;;;;;10.63;7.00;;;8.10;22.70;;;;;;5035918;28;20749;-80
2021/04/28 00:53:09;;;;;;;12.20;7.10;;;8.00;21.00;;;;;;5022188;28;20388;-81
2021/04/28 00:55:36;;;;;;;8.10;5.95;;;8.20;20.10;;;;;;5014301;28;20396;-82
2021/04/28 00:58:02;;;;;;;14.00;6.80;;;8.20;20.70;;;;;;5027236;28;20389;-82
2021/04/28 01:00:29;;;;;;;14.68;7.00;;;8.30;20.10;;;;;;5012518;28;20403;-80
2021/04/28 01:02:56;;;;;;;12.77;7.03;;;8.30;20.70;;;;;;5033959;28;20402;-80
2021/04/28 01:05:23;;;;;;;12.68;7.03;;;8.10;20.40;;;;;;5028328;28;20397;-80
2021/04/28 01:07:50;;;;;;;11.32;6.63;;;8.20;21.40;;;;;;5023198;28;20407;-81
2021/04/28 01:10:29;;;;;;;8.93;6.20;;;8.10;21.60;;;;;;5033736;28;20406;-79
2021/04/28 01:12:56;;;;;;;13.95;6.60;;;8.10;22.60;;;;;;5037481;28;20479;-80
2021/04/28 01:15:27;;;;;;;12.40;6.95;;;8.10;21.60;;;;;;5023287;28;20492;-79
2021/04/28 01:17:54;;;;;;;11.40;6.28;;;8.00;22.60;;;;;;5020869;28;20395;-80
2021/04/28 01:20:21;;;;;;;10.52;7.13;;;7.90;23.20;;;;;;5018036;28;20407;-81
2021/04/28 01:22:48;;;;;;;16.53;6.30;;;7.90;22.80;;;;;;5023662;28;20447;-79
2021/04/28 01:25:18;;;;;;;12.40;6.60;;;7.90;22.80;;;;;;5033169;28;20376;-81
2021/04/28 01:27:50;;;;;;;14.18;6.95;;;7.80;23.10;;;;;;5019296;28;20392;-80
2021/04/28 01:30:17;;;;;;;9.98;6.30;;;7.80;23.30;;;;;;5011989;28;20413;-81
2021/04/28 01:32:48;;;;;;;11.10;6.90;;;7.70;23.80;;;;;;5039508;28;20474;-81
2021/04/28 01:35:17;;;;;;;10.77;7.10;;;7.60;24.50;;;;;;5021726;28;20391;-81
2021/04/28 01:37:43;;;;;;;8.07;6.43;;;7.40;25.00;;;;;;5020512;28;20387;-82
2021/04/28 01:40:14;;;;;;;12.95;6.30;;;7.20;27.60;;;;;;5052733;28;20410;-82
2021/04/28 01:42:41;;;;;;;10.38;6.90;;;7.00;27.80;;;;;;5054206;28;20379;-82
2021/04/28 01:45:08;;;;;;;8.82;6.55;;;6.70;29.10;;;;;;5036517;28;20414;-81
2021/04/28 01:47:34;;;;;;;15.25;7.18;;;6.70;30.90;;;;;;5036854;28;20387;-81
2021/04/28 01:50:00;;;;;;;13.20;7.07;;;6.90;29.70;;;;;;5050549;28;20959;-81
2021/04/28 01:52:25;;;;;;;8.35;6.40;;;7.10;29.20;;;;;;5036841;28;20439;-82
2021/04/28 01:54:51;;;;;;;15.20;7.40;;;7.20;27.30;;;;;;5013713;28;20393;-82
2021/04/28 01:57:17;;;;;;;11.37;6.83;;;7.30;28.00;;;;;;5016775;28;20446;-83
2021/04/28 01:59:44;;;;;;;9.73;7.00;;;7.30;27.60;;;;;;5035447;28;20377;-82
2021/04/28 02:02:10;;;;;;;12.60;6.90;;;7.30;27.70;;;;;;5032913;28;20475;-82
2021/04/28 02:04:37;;;;;;;10.20;7.30;;;7.20;29.70;;;;;;5019950;28;20443;-81
2021/04/28 02:07:03;;;;;;;9.85;6.93;;;7.10;30.30;;;;;;5023913;28;20397;-80
2021/04/28 02:09:30;;;;;;;12.20;7.10;;;6.90;30.40;;;;;;5026363;28;20952;-81
2021/04/28 02:11:57;;;;;;;8.45;6.25;;;6.80;30.40;;;;;;5024438;28;20397;-81
2021/04/28 02:14:23;;;;;;;13.80;7.60;;;6.80;31.90;;;;;;5020650;28;20467;-83
2021/04/28 02:16:49;;;;;;;8.40;6.60;;;6.70;32.30;;;;;;5040230;28;20445;-84
2021/04/28 02:19:16;;;;;;;11.88;7.20;;;6.80;32.60;;;;;;5040278;28;20396;-84
2021/04/28 02:21:50;;;;;;;11.77;6.70;;;6.70;32.70;;;;;;5040625;28;20396;-82
2021/04/28 02:24:16;;;;;;;13.70;7.60;;;6.70;33.50;;;;;;5020436;28;20424;-82
2021/04/28 02:26:43;;;;;;;14.60;7.35;;;6.80;31.70;;;;;;5020935;28;20798;-84
2021/04/28 02:29:09;;;;;;;14.73;7.82;;;6.90;30.80;;;;;;5033957;28;20762;-83
2021/04/28 02:31:36;;;;;;;11.95;7.40;;;6.90;31.30;;;;;;5033926;28;20414;-83
2021/04/28 02:34:03;;;;;;;14.65;7.85;;;6.80;31.90;;;;;;5032504;28;20390;-83
2021/04/28 02:36:33;;;;;;;12.38;7.43;;;6.90;32.40;;;;;;5050667;28;20897;-82
2021/04/28 02:39:04;;;;;;;9.07;7.03;;;6.80;33.30;;;;;;5049054;28;20423;-81
2021/04/28 02:41:29;;;;;;;12.98;7.60;;;6.40;34.30;;;;;;5032085;28;20875;-82
2021/04/28 02:43:57;;;;;;;20.13;8.27;;;6.50;35.30;;;;;;5046941;28;20403;-82
2021/04/28 02:46:23;;;;;;;17.80;8.50;;;6.60;35.30;;;;;;5047090;28;20482;-82
2021/04/28 02:48:50;;;;;;;19.35;8.40;;;6.60;33.90;;;;;;5047057;28;20414;-82
2021/04/28 02:51:16;;;;;;;14.35;8.18;;;6.30;34.60;;;;;;5023960;28;20451;-80
2021/04/28 02:53:44;;;;;;;13.40;7.73;;;6.20;37.10;;;;;;5033766;28;20385;-84
2021/04/28 02:56:11;;;;;;;12.43;8.50;;;6.00;37.30;;;;;;5028378;28;20381;-82
2021/04/28 02:58:38;;;;;;;12.70;8.10;;;5.90;38.70;;;;;;5028860;28;20377;-81
2021/04/28 03:01:04;;;;;;;14.15;8.45;;;6.00;38.50;;;;;;5035582;28;20373;-82
2021/04/28 03:03:32;;;;;;;12.85;8.32;;;6.30;36.40;;;;;;5016606;28;20401;-80
2021/04/28 03:05:58;;;;;;;11.88;7.43;;;6.40;35.70;;;;;;5010016;28;20400;-82
2021/04/28 03:08:24;;;;;;;12.45;7.95;;;6.30;36.20;;;;;;5026540;28;20425;-82
2021/04/28 03:10:51;;;;;;;13.90;8.23;;;6.20;37.40;;;;;;5038017;28;20499;-83
2021/04/28 03:13:17;;;;;;;10.50;7.70;;;6.30;36.30;;;;;;5046626;28;20387;-82
2021/04/28 03:15:44;;;;;;;14.70;7.88;;;6.40;35.60;;;;;;5014967;28;20393;-80
2021/04/28 03:18:12;;;;;;;13.80;7.55;;;6.40;35.30;;;;;;5028660;28;20421;-84
2021/04/28 03:20:40;;;;;;;11.13;8.02;;;6.40;35.80;;;;;;5018907;28;20381;-81
2021/04/28 03:23:07;;;;;;;13.65;8.38;;;6.30;36.10;;;;;;5020704;28;20408;-81
2021/04/28 03:25:32;;;;;;;16.08;8.48;;;6.30;35.70;;;;;;5030283;28;20399;-81
2021/04/28 03:27:59;;;;;;;15.30;9.00;;;6.40;35.20;;;;;;5031842;28;20391;-82
2021/04/28 03:30:25;;;;;;;16.80;9.25;;;6.40;35.20;;;;;;5040131;28;20927;-80
2021/04/28 03:32:51;;;;;;;72.22;44.45;;;6.30;35.10;;;;;;5043740;28;20469;-83
2021/04/28 03:35:16;;;;;;;16.43;9.17;;;6.20;36.40;;;;;;5028104;28;20387;-81
2021/04/28 03:37:43;;;;;;;14.60;9.47;;;6.20;36.90;;;;;;5028575;28;20860;-82
2021/04/28 03:40:09;;;;;;;14.20;8.80;;;6.10;36.70;;;;;;5007612;28;20396;-82
2021/04/28 03:42:35;;;;;;;13.45;8.23;;;6.00;38.00;;;;;;5023253;28;20412;-83
2021/04/28 03:45:01;;;;;;;13.95;8.90;;;5.90;38.80;;;;;;5031475;28;20392;-81
2021/04/28 03:47:27;;;;;;;16.87;8.50;;;5.70;41.20;;;;;;5033120;28;20393;-83
2021/04/28 03:49:52;;;;;;;14.57;8.60;;;5.60;40.10;;;;;;5034667;28;20416;-80
2021/04/28 03:52:18;;;;;;;15.98;9.35;;;5.50;41.80;;;;;;5029858;28;20404;-80
2021/04/28 03:54:44;;;;;;;17.75;9.80;;;5.20;42.00;;;;;;5032280;28;20393;-81
2021/04/28 03:57:10;;;;;;;16.92;9.90;;;5.10;42.50;;;;;;5029043;28;20384;-81
2021/04/28 03:59:36;;;;;;;24.00;10.65;;;5.30;43.60;;;;;;5031980;28;20424;-82
2021/04/28 04:02:03;;;;;;;23.57;10.10;;;5.20;42.60;;;;;;5033164;28;20388;-81
2021/04/28 04:04:29;;;;;;;25.77;10.90;;;5.20;44.20;;;;;;5034181;28;20401;-82
2021/04/28 04:06:54;;;;;;;20.33;9.80;;;5.20;44.30;;;;;;5023207;22;20860;-76
2021/04/28 04:09:20;;;;;;;22.57;9.80;;;5.00;44.10;;;;;;4993179;28;20792;-76
2021/04/28 04:11:46;;;;;;;22.07;9.33;;;5.10;46.50;;;;;;4993399;28;20410;-75
2021/04/28 04:14:11;;;;;;;19.50;9.20;;;5.30;46.20;;;;;;4992830;28;20417;-76
2021/04/28 04:16:37;;;;;;;17.85;10.18;;;5.70;43.10;;;;;;4993265;28;20391;-75
2021/04/28 04:19:03;;;;;;;15.90;9.10;;;5.90;40.20;;;;;;4993233;28;20728;-76
2021/04/28 04:21:28;;;;;;;17.40;10.60;;;5.90;40.60;;;;;;4994318;28;20769;-76
2021/04/28 04:23:54;;;;;;;17.70;10.10;;;5.80;42.60;;;;;;5010255;28;20396;-77
2021/04/28 04:26:20;;;;;;;15.70;10.27;;;5.50;42.80;;;;;;4993031;28;20413;-77
2021/04/28 04:28:45;;;;;;;18.98;9.65;;;5.40;43.60;;;;;;4994166;28;20421;-77
2021/04/28 04:31:11;;;;;;;18.87;10.10;;;5.60;45.30;;;;;;4996587;28;20410;-77
2021/04/28 04:33:37;;;;;;;20.30;11.13;;;5.50;43.40;;;;;;4993399;28;20457;-77
2021/04/28 04:36:03;;;;;;;17.33;9.73;;;5.40;43.50;;;;;;4997655;28;20781;-77
2021/04/28 04:38:28;;;;;;;18.23;10.52;;;5.40;45.40;;;;;;5012403;28;20421;-77
2021/04/28 04:40:54;;;;;;;18.80;10.25;;;5.70;44.70;;;;;;5012497;28;20873;-77
2021/04/28 04:43:19;;;;;;;20.15;10.35;;;5.70;42.70;;;;;;5012303;28;20385;-77
2021/04/28 04:45:45;;;;;;;18.43;10.57;;;5.50;42.10;;;;;;5013815;28;20389;-77
2021/04/28 04:48:11;;;;;;;18.60;11.27;;;5.50;43.00;;;;;;5015158;28;20751;-76
2021/04/28 04:50:37;;;;;;;18.57;10.87;;;5.60;45.00;;;;;;5006909;28;20813;-76
2021/04/28 04:53:04;;;;;;;20.33;10.77;;;5.90;42.30;;;;;;4992350;28;20402;-76
2021/04/28 04:55:30;;;;;;;16.67;10.85;;;5.90;40.90;;;;;;4992527;28;20402;-76
2021/04/28 04:57:56;;;;;;;17.50;11.23;;;5.80;40.10;;;;;;4993558;28;20751;-76
2021/04/28 05:00:22;;;;;;;16.00;10.50;;;5.70;40.10;;;;;;4992230;28;20891;-76
2021/04/28 05:02:48;;;;;;;21.25;10.70;;;5.80;39.90;;;;;;4991893;28;20393;-76
2021/04/28 05:05:14;;;;;;;18.42;11.30;;;5.90;40.60;;;;;;4999614;28;20393;-76
2021/04/28 05:07:40;;;;;;;17.50;11.15;;;6.20;40.30;;;;;;5011110;28;20420;-76
2021/04/28 05:10:08;;;;;;;27.58;11.80;;;6.40;38.50;;;;;;5013194;28;20404;-76
2021/04/28 05:12:34;;;;;;;17.33;10.30;;;6.50;37.60;;;;;;5013673;28;20388;-76
2021/04/28 05:15:00;;;;;;;25.65;12.20;;;6.80;36.40;;;;;;5003910;28;20396;-76
2021/04/28 05:17:25;;;;;;;30.38;11.98;;;6.70;36.00;;;;;;4992069;28;20390;-76
2021/04/28 05:19:51;;;;;;;23.70;10.90;;;6.70;35.10;;;;;;5001541;28;20467;-77
2021/04/28 05:22:21;;;;;;;23.45;11.55;;;7.00;34.30;;;;;;4996832;28;20457;-77
2021/04/28 05:24:47;;;;;;;20.25;11.40;;;7.20;32.80;;;;;;4992286;28;20798;-77
2021/04/28 05:27:13;;;;;;;19.70;10.37;;;7.20;32.70;;;;;;4993901;28;20391;-79
2021/04/28 05:29:38;;;;;;;21.63;11.00;;;7.20;32.20;;;;;;5016906;28;20772;-77
2021/04/28 05:32:04;;;;;;;46.40;14.50;;;7.30;32.50;;;;;;5013443;28;20881;-77
2021/04/28 05:34:30;;;;;;;20.15;10.70;;;7.60;30.90;;;;;;4994841;28;20446;-76
2021/04/28 05:36:55;;;;;;;17.98;10.85;;;7.80;30.50;;;;;;5012263;28;20769;-77
2021/04/28 05:39:21;;;;;;;18.05;10.70;;;7.80;29.80;;;;;;5012538;28;20393;-77
2021/04/28 05:41:46;;;;;;;21.08;10.85;;;7.80;29.70;;;;;;5014122;28;20396;-77
2021/04/28 05:44:12;;;;;;;19.23;10.65;;;7.90;29.90;;;;;;5016028;28;20503;-77
2021/04/28 05:46:38;;;;;;;20.02;10.75;;;7.90;30.30;;;;;;5012589;28;20388;-77
2021/04/28 05:49:04;;;;;;;23.00;10.18;;;7.90;30.60;;;;;;4999824;28;20473;-78
2021/04/28 05:51:31;;;;;;;20.55;11.13;;;8.20;28.60;;;;;;4992829;28;20418;-79
2021/04/28 05:53:57;;;;;;;20.88;10.48;;;8.50;27.00;;;;;;4977824;28;20394;-76
2021/04/28 05:56:23;;;;;;;21.90;10.70;;;8.70;26.90;;;;;;4974774;28;20958;-76
2021/04/28 05:58:48;;;;;;;25.20;10.80;;;8.90;25.20;;;;;;4993525;28;20863;-76
2021/04/28 06:01:15;;;;;;;17.67;11.30;;;9.10;24.10;;;;;;4992261;28;20425;-78
2021/04/28 06:03:40;;;;;;;24.63;11.23;;;9.30;23.40;;;;;;4992188;28;20875;-77
2021/04/28 06:06:06;;;;;;;27.02;12.05;;;9.40;23.40;;;;;;4992503;28;20413;-77
2021/04/28 06:08:41;;;;;;;40.08;12.70;;;9.40;23.40;;;;;;4993497;28;20390;-76
2021/04/28 06:11:06;;;;;;;28.83;11.68;;;9.60;22.20;;;;;;4992291;28;20410;-75
2021/04/28 06:13:32;;;;;;;31.55;11.20;;;9.80;21.70;;;;;;4992822;28;20394;-74
2021/04/28 06:15:58;;;;;;;26.42;10.73;;;10.00;21.30;;;;;;4994977;28;20383;-78
2021/04/28 06:18:24;;;;;;;24.15;11.20;;;10.10;20.70;;;;;;4993502;28;20407;-77
2021/04/28 06:20:49;;;;;;;23.50;11.33;;;10.30;19.80;;;;;;4994138;28;20569;-73
2021/04/28 06:23:15;;;;;;;25.53;11.03;;;10.60;18.50;;;;;;4992332;28;20390;-73
2021/04/28 06:25:40;;;;;;;22.10;10.90;;;10.90;17.50;;;;;;4997234;28;20894;-74
2021/04/28 06:28:07;;;;;;;22.73;10.90;;;11.20;16.50;;;;;;5008052;28;20476;-76
2021/04/28 06:30:33;;;;;;;23.35;11.35;;;11.40;16.30;;;;;;4997458;28;20414;-75
2021/04/28 06:32:59;;;;;;;23.13;12.40;;;11.70;16.30;;;;;;5000705;28;20432;-78
2021/04/28 06:35:24;;;;;;;25.70;11.30;;;12.00;15.20;;;;;;5012150;28;20389;-76
2021/04/28 06:37:50;;;;;;;26.47;11.63;;;12.30;15.30;;;;;;4983055;28;20429;-77
2021/04/28 06:40:15;;;;;;;26.37;11.13;;;12.50;14.50;;;;;;5000555;28;20482;-76
2021/04/28 06:42:41;;;;;;;19.63;10.50;;;12.80;12.70;;;;;;4993290;28;20468;-76
2021/04/28 06:45:08;;;;;;;17.20;10.80;;;12.90;11.40;;;;;;4982810;28;20398;-76
2021/04/28 06:47:34;;;;;;;25.33;10.80;;;13.00;11.40;;;;;;4980945;28;20400;-76
2021/04/28 06:50:00;;;;;;;24.05;11.57;;;13.00;11.80;;;;;;4991721;28;20406;-75
2021/04/28 06:52:25;;;;;;;25.25;11.13;;;13.10;11.90;;;;;;4977380;28;20740;-73
2021/04/28 06:54:51;;;;;;;23.30;11.70;;;12.90;11.20;;;;;;5002211;28;20400;-77
2021/04/28 06:57:16;;;;;;;24.88;11.45;;;12.80;11.00;;;;;;4995774;28;20404;-76
2021/04/28 06:59:42;;;;;;;24.95;12.15;;;13.20;10.30;;;;;;4998941;28;20475;-76
2021/04/28 07:02:08;;;;;;;21.00;11.52;;;13.50;10.00;;;;;;5015392;28;20407;-76
2021/04/28 07:04:34;;;;;;;29.67;12.13;;;13.60;9.90;;;;;;5025843;28;20407;-76
2021/04/28 07:06:59;;;;;;;17.55;11.02;;;13.80;9.60;;;;;;5026340;28;20459;-76
2021/04/28 07:09:25;;;;;;;20.02;11.30;;;14.10;9.00;;;;;;4990017;28;20402;-75
2021/04/28 07:11:51;;;;;;;17.50;10.02;;;14.30;8.60;;;;;;4994782;28;20414;-77
2021/04/28 07:14:47;;;;;;;;;;;;;;;;;;;;;
2021/04/28 07:17:13;;;;;;;21.58;10.68;;;14.30;6.40;;;;;;5075838;22;20442;-77
2021/04/28 07:19:39;;;;;;;16.07;9.30;;;14.40;6.50;;;;;;4994251;28;20971;-76
2021/04/28 07:22:05;;;;;;;17.73;9.83;;;14.70;6.00;;;;;;4994691;28;20418;-76
2021/04/28 07:24:30;;;;;;;18.25;9.27;;;14.90;6.40;;;;;;4994394;28;20427;-76
2021/04/28 07:26:56;;;;;;;15.13;9.00;;;15.00;6.10;;;;;;4980342;28;20404;-75
2021/04/28 07:29:22;;;;;;;15.43;9.47;;;15.00;5.40;;;;;;5011078;22;20394;-80
2021/04/28 07:31:48;;;;;;;15.97;9.53;;;15.00;4.60;;;;;;5026570;28;20419;-81
2021/04/28 07:34:13;;;;;;;12.47;8.23;;;15.20;5.10;;;;;;5042931;28;20387;-82
2021/04/28 07:36:39;;;;;;;14.40;9.37;;;15.30;5.70;;;;;;5043532;28;20442;-82
2021/04/28 07:39:07;;;;;;;14.80;9.40;;;15.50;4.70;;;;;;5025204;28;20406;-82
2021/04/28 07:41:36;;;;;;;22.00;10.10;;;15.40;3.90;;;;;;5023842;28;20403;-82
2021/04/28 07:44:02;;;;;;;16.42;10.02;;;15.30;4.80;;;;;;5043657;28;20387;-80
2021/04/28 07:46:28;;;;;;;18.35;9.88;;;15.40;4.90;;;;;;5044010;28;20402;-82
2021/04/28 07:48:54;;;;;;;19.38;9.88;;;15.30;4.80;;;;;;5040871;28;20764;-81
2021/04/28 07:51:20;;;;;;;19.08;9.63;;;15.30;4.40;;;;;;5023972;28;20418;-82
2021/04/28 07:53:46;;;;;;;14.57;10.30;;;15.30;4.60;;;;;;5043064;28;20391;-81
2021/04/28 07:56:11;;;;;;;20.73;10.30;;;15.20;5.10;;;;;;5043019;28;20406;-79
2021/04/28 07:58:37;;;;;;;22.30;9.93;;;15.10;5.20;;;;;;5031660;28;20395;-82
2021/04/28 08:01:03;;;;;;;17.15;10.10;;;15.20;5.70;;;;;;5045789;28;20395;-81
2021/04/28 08:03:28;;;;;;;14.98;10.25;;;15.20;5.30;;;;;;5043951;28;20403;-81
2021/04/28 08:05:54;;;;;;;20.08;10.35;;;15.10;5.10;;;;;;5053248;28;20410;-79
2021/04/28 08:08:21;;;;;;;22.55;11.63;;;15.10;5.30;;;;;;5048074;28;20872;-79
2021/04/28 08:10:46;;;;;;;17.13;10.50;;;15.20;5.70;;;;;;5047820;28;20426;-80
2021/04/28 08:13:12;;;;;;;18.73;10.23;;;15.50;4.50;;;;;;5048881;28;20399;-79
2021/04/28 08:15:39;;;;;;;18.13;9.60;;;15.50;4.30;;;;;;5048596;28;20439;-79
2021/04/28 08:18:05;;;;;;;17.58;11.65;;;15.50;5.40;;;;;;5049228;28;20458;-81
2021/04/28 08:20:30;;;;;;;19.10;10.33;;;15.50;4.50;;;;;;5048778;28;20845;-81
2021/04/28 08:22:56;;;;;;;13.97;9.80;;;15.90;4.10;;;;;;5042953;28;20434;-82
2021/04/28 08:25:22;;;;;;;17.87;10.37;;;16.20;3.60;;;;;;5025457;28;20423;-82
2021/04/28 08:27:49;;;;;;;17.13;10.30;;;16.30;3.30;;;;;;5032500;28;20825;-79
2021/04/28 08:30:15;;;;;;;19.88;11.00;;;16.20;3.50;;;;;;5008727;28;20420;-80
2021/04/28 08:32:41;;;;;;;19.93;10.30;;;15.90;3.50;;;;;;5025985;28;20384;-80
2021/04/28 08:35:07;;;;;;;17.40;9.77;;;16.00;4.30;;;;;;5042152;28;20395;-81
2021/04/28 08:37:34;;;;;;;17.60;11.00;;;16.20;3.70;;;;;;5046112;28;20424;-81
2021/04/28 08:40:00;;;;;;;19.10;10.90;;;16.00;3.40;;;;;;5051763;28;20391;-79
2021/04/28 08:42:26;;;;;;;16.83;10.10;;;16.00;3.40;;;;;;5055015;28;20458;-79
2021/04/28 08:44:52;;;;;;;20.30;11.37;;;16.20;3.30;;;;;;5054137;28;20394;-78
2021/04/28 08:47:20;;;;;;;16.60;11.25;;;16.10;3.40;;;;;;5033107;28;20387;-81
2021/04/28 08:49:46;;;;;;;15.98;10.35;;;16.00;4.00;;;;;;5036751;28;20413;-80
2021/04/28 08:52:15;;;;;;;18.73;10.90;;;16.00;3.80;;;;;;5053638;28;20423;-79
2021/04/28 08:54:41;;;;;;;18.25;10.50;;;16.20;3.50;;;;;;5030872;28;20391;-80
2021/04/28 08:57:07;;;;;;;18.40;11.63;;;16.10;3.30;;;;;;5042222;28;20396;-79
2021/04/28 08:59:32;;;;;;;16.58;10.98;;;16.10;3.50;;;;;;5046871;28;20409;-78
2021/04/28 09:02:30;;;;;;;16.67;11.10;;;16.10;3.50;;;;;;5042429;28;20387;-80
2021/04/28 09:05:11;;;;;;;21.25;11.43;;;16.10;3.90;;;;;;5006864;28;20399;-77
2021/04/28 09:07:39;;;;;;;15.48;11.02;;;16.30;3.30;;;;;;5003997;28;20723;-80
2021/04/28 09:10:09;;;;;;;18.05;10.73;;;16.30;3.20;;;;;;5027775;28;20459;-79
2021/04/28 09:12:35;;;;;;;15.35;10.52;;;16.30;3.60;;;;;;5042397;28;20398;-80
2021/04/28 09:15:02;;;;;;;22.25;11.68;;;16.70;3.50;;;;;;5027032;28;20399;-78
2021/04/28 09:17:28;;;;;;;22.10;12.95;;;16.90;3.20;;;;;;5046569;28;20394;-79
2021/04/28 09:20:20;;;;;;;20.23;11.60;;;16.90;2.70;;;;;;5040557;28;20395;-77
2021/04/28 09:23:01;;;;;;;17.90;11.70;;;16.80;3.00;;;;;;5034898;28;20751;-78
2021/04/28 09:25:54;;;;;;;16.98;11.23;;;16.80;3.20;;;;;;5044681;28;20426;-81
2021/04/28 09:28:34;;;;;;;19.45;11.20;;;16.90;3.00;;;;;;5041896;28;20561;-80
2021/04/28 09:31:06;;;;;;;17.55;12.10;;;17.00;2.90;;;;;;5045330;28;20411;-81
2021/04/28 09:33:52;;;;;;;20.33;12.10;;;17.00;2.70;;;;;;5047423;28;20386;-77
2021/04/28 09:36:44;;;;;;;22.00;12.00;;;17.00;2.90;;;;;;5032051;28;20396;-77
2021/04/28 09:39:17;;;;;;;20.05;12.70;;;17.20;2.90;;;;;;5044325;28;20391;-78
2021/04/28 09:41:46;;;;;;;18.10;12.50;;;17.20;2.80;;;;;;5036579;28;20387;-80
2021/04/28 09:44:20;;;;;;;17.47;10.87;;;17.20;2.90;;;;;;5049941;28;20387;-80
2021/04/28 09:47:19;;;;;;;23.37;12.67;;;17.30;2.60;;;;;;5045347;28;20395;-79
2021/04/28 09:49:45;;;;;;;21.42;12.45;;;17.40;2.70;;;;;;5046865;28;20419;-81
2021/04/28 09:52:11;;;;;;;21.97;12.37;;;17.70;2.10;;;;;;5028342;28;20391;-81
2021/04/28 09:54:37;;;;;;;20.60;12.10;;;17.80;1.60;;;;;;5044972;28;20418;-81
2021/04/28 09:57:03;;;;;;;15.70;11.30;;;17.60;1.00;;;;;;5048107;28;20510;-80
2021/04/28 09:59:49;;;;;;;15.83;10.97;;;17.70;1.00;;;;;;5047414;28;20469;-80
2021/04/28 10:02:30;;;;;;;15.88;9.88;;;17.80;1.00;;;;;;5028342;28;20398;-80
2021/04/28 10:05:15;;;;;;;13.70;9.45;;;18.00;1.00;;;;;;5027216;28;20502;-78
2021/04/28 10:07:40;;;;;;;16.70;10.82;;;18.10;1.00;;;;;;5044502;28;20398;-78
2021/04/28 10:10:06;;;;;;;16.17;10.70;;;18.30;1.00;;;;;;5025412;28;20415;-80
2021/04/28 10:12:32;;;;;;;13.40;10.00;;;18.40;1.00;;;;;;5037048;28;20728;-78
2021/04/28 10:14:58;;;;;;;15.20;9.60;;;18.60;1.00;;;;;;5039881;28;20432;-78
2021/04/28 10:17:24;;;;;;;15.00;9.70;;;18.80;1.00;;;;;;5026961;28;20387;-80
2021/04/28 10:19:52;;;;;;;14.35;10.80;;;19.00;1.00;;;;;;5051582;28;20419;-81
2021/04/28 10:22:19;;;;;;;16.63;9.80;;;19.20;1.00;;;;;;5051267;28;20449;-79
2021/04/28 10:24:50;;;;;;;14.63;10.55;;;19.30;1.00;;;;;;5050280;28;20398;-80
2021/04/28 10:27:17;;;;;;;16.17;10.05;;;19.20;1.00;;;;;;5054059;28;20375;-78
2021/04/28 10:29:50;;;;;;;14.40;10.07;;;19.10;1.00;;;;;;5054348;28;20514;-78
2021/04/28 10:32:19;;;;;;;15.43;10.00;;;19.10;1.00;;;;;;5039735;28;20432;-78
2021/04/28 10:34:55;;;;;;;15.77;11.30;;;19.10;1.00;;;;;;5038340;28;20471;-79
2021/04/28 10:37:25;;;;;;;15.93;10.30;;;19.00;1.00;;;;;;5050131;28;20387;-80
2021/04/28 10:39:51;;;;;;;16.50;10.27;;;18.90;1.00;;;;;;5047240;28;20394;-80
2021/04/28 10:42:27;;;;;;;19.25;12.95;;;19.10;1.00;;;;;;5042350;28;20534;-74
2021/04/28 10:44:53;;;;;;;15.20;10.90;;;19.10;1.00;;;;;;5042387;28;20399;-75
2021/04/28 10:47:22;;;;;;;19.48;12.00;;;19.10;1.00;;;;;;5024505;28;20402;-74
2021/04/28 10:50:05;;;;;;;16.30;12.10;;;19.20;1.00;;;;;;5047172;28;20395;-81
2021/04/28 10:52:34;;;;;;;12.50;9.40;;;19.30;1.00;;;;;;5053379;28;20398;-81
2021/04/28 10:55:00;;;;;;;15.80;9.70;;;19.40;1.00;;;;;;5033342;28;20395;-81
2021/04/28 10:57:37;;;;;;;17.38;10.35;;;19.40;1.00;;;;;;5031776;28;20391;-82
2021/04/28 11:00:18;;;;;;;15.90;8.75;;;19.60;1.00;;;;;;5050123;28;20403;-82
2021/04/28 11:02:44;;;;;;;19.55;9.60;;;19.70;1.00;;;;;;5051459;28;20418;-81
2021/04/28 11:05:20;;;;;;;13.37;8.90;;;19.80;1.00;;;;;;5027079;28;20388;-83
2021/04/28 11:07:55;;;;;;;12.27;8.38;;;19.90;1.00;;;;;;5038781;28;20466;-82
2021/04/28 11:10:24;;;;;;;15.63;8.70;;;20.00;1.00;;;;;;5037607;28;20446;-81
2021/04/28 11:13:10;;;;;;;18.38;8.80;;;19.90;1.00;;;;;;5034443;28;20764;-81
2021/04/28 11:15:48;;;;;;;11.23;7.80;;;20.00;1.00;;;;;;5030277;28;20406;-81
2021/04/28 11:18:26;;;;;;;15.13;9.30;;;20.10;1.00;;;;;;5035782;28;20446;-78
2021/04/28 11:21:17;;;;;;;11.70;9.38;;;20.10;1.00;;;;;;5034431;28;20383;-74
2021/04/28 11:24:09;;;;;;;11.38;9.35;;;19.90;1.00;;;;;;5034140;28;20747;-76
2021/04/28 11:26:51;;;;;;;14.13;8.55;;;19.60;1.00;;;;;;5038307;28;20379;-78
2021/04/28 11:29:21;;;;;;;15.50;8.60;;;19.60;1.00;;;;;;5038805;28;20745;-76
2021/04/28 11:31:54;;;;;;;12.65;7.88;;;19.60;1.00;;;;;;5040794;28;20478;-77
2021/04/28 11:34:33;;;;;;;10.27;7.70;;;19.70;1.00;;;;;;5043736;28;20371;-78
2021/04/28 11:37:13;;;;;;;15.45;8.27;;;19.90;1.00;;;;;;5023846;28;20394;-78
2021/04/28 11:39:48;;;;;;;14.57;8.77;;;20.10;1.00;;;;;;5017919;28;20395;-74
2021/04/28 11:42:16;;;;;;;11.80;7.38;;;20.10;1.00;;;;;;5035003;28;20398;-73
2021/04/28 11:44:47;;;;;;;9.23;7.07;;;20.10;1.00;;;;;;5034970;28;20395;-73
2021/04/28 11:47:16;;;;;;;11.98;7.05;;;20.10;1.00;;;;;;5037488;28;20387;-76
2021/04/28 11:49:43;;;;;;;9.73;8.03;;;20.10;1.00;;;;;;5033502;28;20434;-77
2021/04/28 11:52:10;;;;;;;9.20;7.50;;;20.10;1.00;;;;;;5026767;28;20416;-74
2021/04/28 11:54:36;;;;;;;8.60;7.10;;;20.10;1.00;;;;;;5021931;28;20393;-78
2021/04/28 11:57:03;;;;;;;8.30;6.55;;;20.40;1.00;;;;;;5040289;28;20408;-79
2021/04/28 11:59:36;;;;;;;8.25;6.70;;;20.50;1.00;;;;;;5027083;28;20402;-80
2021/04/28 12:02:05;;;;;;;10.73;7.50;;;20.70;1.00;;;;;;5022775;28;20957;-80
2021/04/28 12:04:37;;;;;;;11.32;7.18;;;20.70;1.00;;;;;;5018656;28;20396;-81
2021/04/28 12:07:04;;;;;;;11.60;6.82;;;20.70;1.00;;;;;;5010360;28;20400;-81
2021/04/28 12:09:40;;;;;;;8.15;6.25;;;20.90;1.00;;;;;;5008470;28;20392;-80
2021/04/28 12:12:10;;;;;;;8.13;6.63;;;20.80;1.00;;;;;;5002891;28;20413;-81
2021/04/28 12:14:38;;;;;;;10.77;7.00;;;20.90;1.00;;;;;;5027704;28;20383;-79
2021/04/28 12:17:03;;;;;;;12.13;7.80;;;21.00;1.00;;;;;;5041250;28;20379;-81
2021/04/28 12:19:29;;;;;;;8.65;7.00;;;21.00;1.00;;;;;;5028611;28;20408;-81
2021/04/28 12:22:04;;;;;;;13.90;8.20;;;21.10;1.00;;;;;;5028358;28;20393;-76
2021/04/28 12:24:52;;;;;;;9.33;7.13;;;21.20;1.00;;;;;;5027350;28;20447;-82
2021/04/28 12:27:20;;;;;;;10.23;7.70;;;21.30;1.00;;;;;;5020824;28;20472;-81
2021/04/28 12:30:00;;;;;;;13.65;7.65;;;21.40;1.00;;;;;;5019744;28;20423;-82
2021/04/28 12:32:30;;;;;;;11.48;8.30;;;21.50;1.00;;;;;;5020551;28;20494;-80
2021/04/28 12:35:20;;;;;;;13.73;7.97;;;21.50;1.00;;;;;;5030505;28;20381;-79
2021/04/28 12:38:09;;;;;;;11.02;8.00;;;21.30;1.00;;;;;;5013656;28;20404;-82
2021/04/28 12:40:48;;;;;;;11.20;8.10;;;21.20;1.00;;;;;;5029423;28;20388;-81
2021/04/28 12:43:22;;;;;;;14.80;7.95;;;21.40;1.00;;;;;;5013248;28;20597;-81
2021/04/28 12:45:48;;;;;;;15.60;8.60;;;21.50;1.00;;;;;;5031522;28;20510;-81
2021/04/28 12:48:18;;;;;;;10.10;8.00;;;21.70;1.00;;;;;;5028794;28;20419;-80
2021/04/28 12:50:46;;;;;;;12.50;9.18;;;21.80;1.00;;;;;;5013149;28;20456;-77